createdAt,value
2018-09-02T00:00:06.937Z,7.02
2018-09-02T00:01:06.951Z,7.06
2018-09-02T00:02:06.961Z,6.99
2018-09-02T00:03:06.974Z,7.03
2018-09-02T00:04:06.988Z,7.13
2018-09-02T00:05:07.000Z,7.10
2018-09-02T00:06:07.016Z,7.10
2018-09-02T00:07:07.029Z,7.10
2018-09-02T00:08:07.044Z,7.09
2018-09-02T00:09:07.055Z,7.13
2018-09-02T00:10:07.068Z,7.06
2018-09-02T00:11:07.081Z,7.16
2018-09-02T00:12:07.093Z,7.13
2018-09-02T00:13:07.108Z,7.12
2018-09-02T00:14:07.118Z,7.06
2018-09-02T00:15:07.134Z,7.10
2018-09-02T00:16:07.148Z,7.10
2018-09-02T00:17:07.159Z,7.23
2018-09-02T00:18:07.172Z,7.17
2018-09-02T00:19:07.185Z,7.10
2018-09-02T00:20:07.198Z,7.16
2018-09-02T00:21:07.214Z,7.07
2018-09-02T00:22:07.225Z,7.12
2018-09-02T00:23:07.237Z,7.23
2018-09-02T00:24:07.252Z,7.23
2018-09-02T00:25:07.265Z,7.23
2018-09-02T00:26:07.278Z,7.27
2018-09-02T00:27:07.290Z,7.28
2018-09-02T00:28:07.305Z,7.25
2018-09-02T00:29:07.315Z,7.30
2018-09-02T00:30:07.328Z,7.34
2018-09-02T00:31:07.343Z,7.42
2018-09-02T00:32:07.353Z,7.40
2018-09-02T00:33:07.406Z,7.39
2018-09-02T00:34:07.383Z,7.52
2018-09-02T00:35:07.407Z,7.43
2018-09-02T00:36:07.411Z,7.42
2018-09-02T00:37:07.420Z,7.48
2018-09-02T00:38:07.436Z,7.52
2018-09-02T00:39:07.448Z,7.55
2018-09-02T00:40:07.465Z,7.61
2018-09-02T00:41:07.473Z,7.58
2018-09-02T00:42:07.489Z,7.60
2018-09-02T00:43:07.499Z,7.60
2018-09-02T00:44:07.514Z,7.64
2018-09-02T00:45:07.528Z,7.61
2018-09-02T00:46:07.539Z,7.60
2018-09-02T00:47:07.553Z,7.49
2018-09-02T00:48:07.569Z,7.35
2018-09-02T00:49:07.581Z,7.27
2018-09-02T00:50:07.594Z,7.12
2018-09-02T00:51:07.607Z,7.09
2018-09-02T00:52:07.622Z,7.09
2018-09-02T00:53:07.633Z,7.23
2018-09-02T00:54:07.647Z,7.17
2018-09-02T00:55:07.660Z,7.20
2018-09-02T00:56:07.675Z,7.23
2018-09-02T00:57:07.689Z,7.24
2018-09-02T00:58:07.701Z,7.24
2018-09-02T00:59:07.713Z,7.28
2018-09-02T01:00:07.728Z,7.30
2018-09-02T01:01:07.739Z,7.27
2018-09-02T01:02:07.753Z,7.28
2018-09-02T01:03:07.766Z,7.31
2018-09-02T01:04:07.779Z,7.37
2018-09-02T01:05:07.792Z,7.32
2018-09-02T01:06:07.805Z,7.30
2018-09-02T01:07:07.816Z,7.40
2018-09-02T01:08:07.836Z,7.45
2018-09-02T01:09:07.846Z,7.45
2018-09-02T01:10:07.857Z,7.42
2018-09-02T01:11:07.872Z,7.45
2018-09-02T01:12:07.885Z,7.45
2018-09-02T01:13:07.897Z,7.43
2018-09-02T01:14:07.911Z,7.46
2018-09-02T01:15:07.924Z,7.43
2018-09-02T01:16:07.937Z,7.43
2018-09-02T01:17:07.951Z,7.43
2018-09-02T01:18:07.963Z,7.37
2018-09-02T01:19:07.977Z,7.40
2018-09-02T01:20:07.998Z,7.35
2018-09-02T01:21:08.010Z,7.28
2018-09-02T01:22:08.018Z,7.34
2018-09-02T01:23:08.165Z,7.40
2018-09-02T01:24:08.043Z,7.40
2018-09-02T01:25:08.056Z,7.30
2018-09-02T01:26:08.072Z,7.37
2018-09-02T01:27:08.083Z,7.32
2018-09-02T01:28:08.096Z,7.35
2018-09-02T01:29:08.113Z,7.30
2018-09-02T01:30:08.125Z,7.30
2018-09-02T01:31:08.139Z,7.24
2018-09-02T01:32:08.154Z,7.28
2018-09-02T01:33:08.162Z,7.27
2018-09-02T01:34:08.175Z,7.30
2018-09-02T01:35:08.190Z,7.25
2018-09-02T01:36:08.205Z,7.31
2018-09-02T01:37:08.216Z,7.31
2018-09-02T01:38:08.227Z,7.39
2018-09-02T01:39:08.245Z,7.34
2018-09-02T01:40:08.255Z,7.32
2018-09-02T01:41:08.268Z,7.42
2018-09-02T01:42:08.281Z,7.32
2018-09-02T01:43:08.294Z,7.30
2018-09-02T01:44:08.308Z,7.34
2018-09-02T01:45:08.320Z,7.30
2018-09-02T01:46:08.338Z,7.35
2018-09-02T01:47:08.348Z,7.27
2018-09-02T01:48:08.361Z,7.31
2018-09-02T01:49:08.374Z,7.31
2018-09-02T01:50:08.388Z,7.24
2018-09-02T01:51:08.401Z,7.02
2018-09-02T01:52:08.413Z,6.88
2018-09-02T01:53:08.427Z,6.64
2018-09-02T01:54:08.439Z,6.64
2018-09-02T01:55:08.454Z,6.67
2018-09-02T01:56:08.468Z,6.69
2018-09-02T01:57:08.480Z,6.67
2018-09-02T01:58:08.493Z,6.73
2018-09-02T01:59:08.506Z,6.77
2018-09-02T02:00:08.520Z,6.74
2018-09-02T02:01:08.532Z,6.79
2018-09-02T02:02:08.544Z,6.85
2018-09-02T02:03:08.558Z,6.91
2018-09-02T02:04:08.574Z,6.94
2018-09-02T02:05:08.587Z,6.92
2018-09-02T02:06:08.596Z,6.97
2018-09-02T02:07:08.610Z,6.97
2018-09-02T02:08:08.623Z,6.99
2018-09-02T02:09:08.635Z,6.99
2018-09-02T02:10:08.653Z,6.97
2018-09-02T02:11:08.663Z,6.99
2018-09-02T02:12:08.677Z,6.98
2018-09-02T02:13:08.688Z,6.98
2018-09-02T02:14:08.700Z,6.95
2018-09-02T02:15:08.718Z,6.89
2018-09-02T02:16:08.728Z,6.81
2018-09-02T02:17:08.740Z,6.70
2018-09-02T02:18:08.756Z,6.64
2018-09-02T02:19:08.767Z,6.66
2018-09-02T02:20:08.782Z,6.64
2018-09-02T02:21:08.792Z,6.70
2018-09-02T02:22:08.805Z,6.67
2018-09-02T02:23:08.819Z,6.66
2018-09-02T02:24:08.832Z,6.73
2018-09-02T02:25:08.845Z,6.55
2018-09-02T02:26:08.858Z,6.55
2018-09-02T02:27:08.872Z,6.67
2018-09-02T02:28:08.884Z,6.70
2018-09-02T02:29:08.897Z,6.74
2018-09-02T02:30:08.909Z,6.66
2018-09-02T02:31:08.923Z,6.51
2018-09-02T02:32:08.936Z,6.46
2018-09-02T02:33:08.949Z,6.43
2018-09-02T02:34:08.961Z,6.51
2018-09-02T02:35:08.973Z,6.52
2018-09-02T02:36:08.988Z,6.56
2018-09-02T02:37:09.005Z,6.52
2018-09-02T02:38:09.011Z,6.55
2018-09-02T02:39:09.026Z,6.61
2018-09-02T02:40:09.036Z,6.43
2018-09-02T02:41:09.049Z,6.34
2018-09-02T02:42:09.063Z,6.27
2018-09-02T02:43:09.074Z,6.28
2018-09-02T02:44:09.087Z,6.25
2018-09-02T02:45:09.103Z,6.25
2018-09-02T02:46:09.114Z,6.27
2018-09-02T02:47:09.130Z,6.36
2018-09-02T02:48:09.140Z,6.34
2018-09-02T02:49:09.148Z,6.33
2018-09-02T02:50:09.164Z,6.36
2018-09-02T02:51:09.174Z,6.37
2018-09-02T02:52:09.189Z,6.41
2018-09-02T02:53:09.200Z,6.55
2018-09-02T02:54:09.213Z,6.54
2018-09-02T02:55:09.224Z,6.58
2018-09-02T02:56:09.238Z,6.71
2018-09-02T02:57:09.248Z,6.62
2018-09-02T02:58:09.261Z,6.62
2018-09-02T02:59:09.273Z,6.64
2018-09-02T03:00:09.291Z,6.66
2018-09-02T03:01:09.300Z,6.69
2018-09-02T03:02:09.311Z,6.69
2018-09-02T03:03:09.323Z,6.77
2018-09-02T03:04:09.337Z,6.79
2018-09-02T03:05:09.349Z,6.84
2018-09-02T03:06:09.363Z,6.85
2018-09-02T03:07:09.374Z,6.88
2018-09-02T03:08:09.386Z,6.91
2018-09-02T03:09:09.399Z,6.84
2018-09-02T03:10:09.412Z,6.88
2018-09-02T03:11:09.426Z,6.84
2018-09-02T03:12:09.438Z,6.87
2018-09-02T03:13:09.448Z,6.91
2018-09-02T03:14:09.460Z,6.97
2018-09-02T03:15:09.481Z,6.94
2018-09-02T03:16:09.487Z,6.99
2018-09-02T03:17:09.499Z,7.06
2018-09-02T03:18:09.512Z,6.97
2018-09-02T03:19:09.524Z,7.02
2018-09-02T03:20:09.537Z,7.06
2018-09-02T03:21:09.549Z,7.10
2018-09-02T03:22:09.573Z,7.07
2018-09-02T03:23:09.575Z,7.17
2018-09-02T03:24:09.590Z,7.13
2018-09-02T03:25:09.601Z,7.15
2018-09-02T03:26:09.613Z,7.21
2018-09-02T03:27:09.632Z,7.27
2018-09-02T03:28:09.640Z,7.24
2018-09-02T03:29:09.651Z,7.23
2018-09-02T03:30:09.663Z,7.23
2018-09-02T03:31:09.680Z,7.23
2018-09-02T03:32:09.690Z,7.25
2018-09-02T03:33:09.706Z,7.28
2018-09-02T03:34:09.716Z,7.27
2018-09-02T03:35:09.729Z,7.30
2018-09-02T03:36:09.743Z,7.23
2018-09-02T03:37:09.755Z,7.34
2018-09-02T03:38:09.772Z,7.24
2018-09-02T03:39:09.783Z,7.32
2018-09-02T03:40:09.796Z,7.25
2018-09-02T03:41:09.806Z,7.28
2018-09-02T03:42:09.820Z,7.23
2018-09-02T03:43:09.833Z,7.28
2018-09-02T03:44:09.847Z,7.34
2018-09-02T03:45:09.860Z,7.31
2018-09-02T03:46:09.874Z,7.32
2018-09-02T03:47:09.884Z,7.31
2018-09-02T03:48:09.897Z,7.40
2018-09-02T03:49:09.914Z,7.32
2018-09-02T03:50:09.925Z,7.31
2018-09-02T03:51:09.939Z,7.30
2018-09-02T03:52:09.949Z,7.37
2018-09-02T03:53:09.965Z,7.32
2018-09-02T03:54:09.976Z,7.37
2018-09-02T03:55:09.991Z,7.28
2018-09-02T03:56:10.004Z,7.28
2018-09-02T03:57:10.019Z,7.34
2018-09-02T03:58:10.028Z,7.34
2018-09-02T03:59:10.042Z,7.27
2018-09-02T04:00:10.059Z,7.37
2018-09-02T04:01:10.070Z,7.25
2018-09-02T04:02:10.081Z,7.27
2018-09-02T04:03:10.094Z,7.34
2018-09-02T04:04:10.110Z,7.32
2018-09-02T04:05:10.123Z,7.32
2018-09-02T04:06:10.137Z,7.30
2018-09-02T04:07:10.148Z,7.37
2018-09-02T04:08:10.160Z,7.35
2018-09-02T04:09:10.173Z,7.42
2018-09-02T04:10:10.187Z,7.43
2018-09-02T04:11:10.259Z,7.40
2018-09-02T04:12:10.249Z,7.45
2018-09-02T04:13:10.225Z,7.40
2018-09-02T04:14:10.238Z,7.39
2018-09-02T04:15:10.290Z,7.37
2018-09-02T04:16:10.267Z,7.40
2018-09-02T04:17:10.281Z,7.39
2018-09-02T04:18:10.293Z,7.30
2018-09-02T04:19:10.305Z,7.32
2018-09-02T04:20:10.320Z,7.30
2018-09-02T04:21:10.329Z,7.28
2018-09-02T04:22:10.344Z,7.32
2018-09-02T04:23:10.358Z,7.32
2018-09-02T04:24:10.373Z,7.35
2018-09-02T04:25:10.384Z,7.30
2018-09-02T04:26:10.396Z,7.27
2018-09-02T04:27:10.417Z,7.30
2018-09-02T04:28:10.424Z,7.27
2018-09-02T04:29:10.436Z,7.34
2018-09-02T04:30:10.450Z,7.25
2018-09-02T04:31:10.499Z,7.25
2018-09-02T04:32:10.482Z,7.28
2018-09-02T04:33:10.493Z,7.37
2018-09-02T04:34:10.504Z,7.27
2018-09-02T04:35:10.519Z,7.32
2018-09-02T04:36:10.559Z,7.37
2018-09-02T04:37:10.553Z,7.31
2018-09-02T04:38:10.560Z,7.42
2018-09-02T04:39:10.578Z,7.39
2018-09-02T04:40:10.584Z,7.42
2018-09-02T04:41:10.602Z,7.48
2018-09-02T04:42:10.608Z,7.45
2018-09-02T04:43:10.624Z,7.45
2018-09-02T04:44:10.641Z,7.43
2018-09-02T04:45:10.788Z,7.45
2018-09-02T04:46:10.666Z,7.43
2018-09-02T04:47:10.683Z,7.45
2018-09-02T04:48:10.689Z,7.42
2018-09-02T04:49:10.703Z,7.46
2018-09-02T04:50:10.717Z,7.39
2018-09-02T04:51:10.737Z,7.42
2018-09-02T04:52:10.744Z,7.35
2018-09-02T04:53:10.757Z,7.30
2018-09-02T04:54:10.805Z,7.28
2018-09-02T04:55:10.794Z,7.25
2018-09-02T04:56:10.795Z,7.31
2018-09-02T04:57:10.816Z,7.32
2018-09-02T04:58:10.823Z,7.27
2018-09-02T04:59:10.842Z,7.27
2018-09-02T05:00:10.899Z,7.25
2018-09-02T05:01:10.878Z,7.28
2018-09-02T05:02:10.876Z,7.31
2018-09-02T05:03:10.897Z,7.21
2018-09-02T05:04:10.904Z,7.34
2018-09-02T05:05:10.922Z,7.25
2018-09-02T05:06:10.931Z,7.24
2018-09-02T05:07:10.946Z,7.31
2018-09-02T05:08:10.956Z,7.23
2018-09-02T05:09:10.969Z,7.27
2018-09-02T05:10:10.988Z,7.27
2018-09-02T05:11:10.995Z,7.10
2018-09-02T05:12:11.012Z,7.12
2018-09-02T05:13:11.022Z,7.03
2018-09-02T05:14:11.071Z,6.99
2018-09-02T05:15:11.052Z,6.95
2018-09-02T05:16:11.069Z,6.98
2018-09-02T05:17:11.074Z,6.98
2018-09-02T05:18:11.088Z,7.02
2018-09-02T05:19:11.124Z,7.03
2018-09-02T05:20:11.116Z,7.15
2018-09-02T05:21:11.130Z,7.12
2018-09-02T05:22:11.147Z,7.21
2018-09-02T05:23:11.156Z,7.21
2018-09-02T05:24:11.170Z,7.12
2018-09-02T05:25:11.182Z,7.13
2018-09-02T05:26:11.194Z,7.10
2018-09-02T05:27:11.221Z,7.20
2018-09-02T05:28:11.222Z,7.17
2018-09-02T05:29:11.242Z,7.25
2018-09-02T05:30:11.248Z,7.25
2018-09-02T05:31:11.269Z,7.24
2018-09-02T05:32:11.274Z,7.28
2018-09-02T05:33:11.294Z,7.35
2018-09-02T05:34:11.300Z,7.32
2018-09-02T05:35:11.317Z,7.27
2018-09-02T05:36:11.327Z,7.27
2018-09-02T05:37:11.347Z,7.34
2018-09-02T05:38:11.352Z,7.37
2018-09-02T05:39:11.365Z,7.34
2018-09-02T05:40:11.380Z,7.32
2018-09-02T05:41:11.401Z,7.35
2018-09-02T05:42:11.404Z,7.43
2018-09-02T05:43:11.427Z,7.40
2018-09-02T05:44:11.433Z,7.40
2018-09-02T05:45:11.451Z,7.46
2018-09-02T05:46:11.456Z,7.49
2018-09-02T05:47:11.475Z,7.50
2018-09-02T05:48:11.485Z,7.53
2018-09-02T05:49:11.503Z,7.58
2018-09-02T05:50:11.509Z,7.55
2018-09-02T05:51:11.529Z,7.42
2018-09-02T05:52:11.536Z,7.40
2018-09-02T05:53:11.558Z,7.40
2018-09-02T05:54:11.563Z,7.37
2018-09-02T05:55:11.577Z,7.48
2018-09-02T05:56:11.589Z,7.40
2018-09-02T05:57:11.602Z,7.37
2018-09-02T05:58:11.617Z,7.40
2018-09-02T05:59:11.636Z,7.45
2018-09-02T06:00:11.642Z,7.46
2018-09-02T06:01:11.666Z,7.40
2018-09-02T06:02:11.668Z,7.37
2018-09-02T06:03:11.684Z,7.17
2018-09-02T06:04:11.697Z,7.15
2018-09-02T06:05:11.716Z,6.98
2018-09-02T06:06:11.723Z,7.06
2018-09-02T06:07:11.742Z,7.09
2018-09-02T06:08:11.749Z,6.98
2018-09-02T06:09:11.761Z,7.12
2018-09-02T06:10:11.774Z,7.10
2018-09-02T06:11:11.797Z,7.10
2018-09-02T06:12:11.804Z,7.12
2018-09-02T06:13:11.824Z,7.12
2018-09-02T06:14:11.826Z,7.06
2018-09-02T06:15:11.849Z,6.97
2018-09-02T06:16:11.853Z,7.05
2018-09-02T06:17:11.923Z,7.07
2018-09-02T06:18:11.879Z,7.16
2018-09-02T06:19:11.900Z,7.10
2018-09-02T06:20:11.905Z,7.25
2018-09-02T06:21:11.917Z,7.32
2018-09-02T06:22:11.933Z,7.30
2018-09-02T06:23:11.952Z,7.30
2018-09-02T06:24:11.962Z,7.35
2018-09-02T06:25:11.981Z,7.39
2018-09-02T06:26:11.983Z,7.43
2018-09-02T06:27:12.007Z,7.28
2018-09-02T06:28:12.008Z,7.25
2018-09-02T06:29:12.030Z,7.13
2018-09-02T06:30:12.163Z,7.20
2018-09-02T06:31:12.059Z,7.09
2018-09-02T06:32:12.066Z,7.21
2018-09-02T06:33:12.080Z,7.20
2018-09-02T06:34:12.088Z,7.15
2018-09-02T06:35:12.107Z,7.12
2018-09-02T06:36:12.119Z,7.25
2018-09-02T06:37:12.132Z,7.13
2018-09-02T06:38:12.143Z,7.21
2018-09-02T06:39:12.155Z,7.23
2018-09-02T06:40:12.169Z,7.10
2018-09-02T06:41:12.179Z,7.23
2018-09-02T06:42:12.194Z,7.15
2018-09-02T06:43:12.214Z,7.12
2018-09-02T06:44:12.220Z,7.15
2018-09-02T06:45:12.235Z,7.20
2018-09-02T06:46:12.245Z,7.23
2018-09-02T06:47:12.260Z,7.17
2018-09-02T06:48:12.273Z,7.24
2018-09-02T06:49:12.283Z,7.23
2018-09-02T06:50:12.296Z,7.34
2018-09-02T06:51:12.312Z,7.28
2018-09-02T06:52:12.326Z,7.30
2018-09-02T06:53:12.335Z,7.45
2018-09-02T06:54:12.348Z,7.49
2018-09-02T06:55:12.362Z,7.50
2018-09-02T06:56:12.392Z,7.48
2018-09-02T06:57:12.391Z,7.42
2018-09-02T06:58:12.400Z,7.35
2018-09-02T06:59:12.415Z,7.28
2018-09-02T07:00:12.430Z,7.27
2018-09-02T07:01:12.443Z,7.21
2018-09-02T07:02:12.462Z,7.13
2018-09-02T07:03:12.478Z,7.20
2018-09-02T07:04:12.479Z,7.10
2018-09-02T07:05:12.502Z,7.15
2018-09-02T07:06:12.507Z,7.15
2018-09-02T07:07:12.571Z,7.13
2018-09-02T07:08:12.535Z,7.25
2018-09-02T07:09:12.547Z,7.27
2018-09-02T07:10:12.560Z,7.35
2018-09-02T07:11:12.573Z,7.31
2018-09-02T07:12:12.587Z,7.34
2018-09-02T07:13:12.597Z,7.27
2018-09-02T07:14:12.628Z,7.27
2018-09-02T07:15:12.636Z,7.32
2018-09-02T07:16:12.640Z,7.37
2018-09-02T07:17:12.668Z,7.24
2018-09-02T07:18:12.663Z,7.35
2018-09-02T07:19:12.678Z,7.46
2018-09-02T07:20:12.871Z,7.37
2018-09-02T07:21:12.705Z,7.43
2018-09-02T07:22:12.716Z,7.32
2018-09-02T07:23:12.736Z,7.40
2018-09-02T07:24:12.742Z,7.43
2018-09-02T07:25:12.855Z,7.32
2018-09-02T07:26:12.769Z,7.30
2018-09-02T07:27:12.782Z,7.31
2018-09-02T07:28:12.793Z,7.40
2018-09-02T07:29:12.806Z,7.42
2018-09-02T07:30:12.820Z,7.48
2018-09-02T07:31:12.833Z,7.58
2018-09-02T07:32:12.846Z,7.64
2018-09-02T07:33:12.858Z,7.57
2018-09-02T07:34:12.879Z,7.58
2018-09-02T07:35:12.887Z,7.67
2018-09-02T07:36:12.913Z,7.57
2018-09-02T07:37:12.910Z,7.39
2018-09-02T07:38:12.924Z,7.42
2018-09-02T07:39:12.942Z,7.45
2018-09-02T07:40:12.953Z,7.43
2018-09-02T07:41:12.961Z,7.32
2018-09-02T07:42:12.977Z,7.30
2018-09-02T07:43:12.989Z,7.32
2018-09-02T07:44:13.073Z,7.32
2018-09-02T07:45:13.016Z,7.35
2018-09-02T07:46:13.028Z,7.42
2018-09-02T07:47:13.039Z,7.40
2018-09-02T07:48:13.053Z,7.52
2018-09-02T07:49:13.068Z,7.42
2018-09-02T07:50:13.080Z,7.34
2018-09-02T07:51:13.092Z,7.27
2018-09-02T07:52:13.115Z,7.32
2018-09-02T07:53:13.117Z,7.28
2018-09-02T07:54:13.136Z,7.28
2018-09-02T07:55:13.144Z,7.28
2018-09-02T07:56:13.159Z,7.35
2018-09-02T07:57:13.170Z,7.46
2018-09-02T07:58:13.181Z,7.40
2018-09-02T07:59:13.196Z,7.30
2018-09-02T08:00:13.211Z,7.34
2018-09-02T08:01:13.228Z,7.27
2018-09-02T08:02:13.234Z,7.10
2018-09-02T08:03:13.247Z,7.23
2018-09-02T08:04:13.261Z,7.23
2018-09-02T08:05:13.273Z,7.24
2018-09-02T08:06:13.288Z,7.25
2018-09-02T08:07:13.298Z,7.24
2018-09-02T08:08:13.315Z,7.28
2018-09-02T08:09:13.324Z,7.24
2018-09-02T08:10:13.339Z,7.23
2018-09-02T08:11:13.348Z,7.37
2018-09-02T08:12:13.397Z,7.28
2018-09-02T08:13:13.378Z,7.34
2018-09-02T08:14:13.390Z,7.28
2018-09-02T08:15:13.402Z,7.15
2018-09-02T08:16:13.415Z,7.28
2018-09-02T08:17:13.427Z,7.12
2018-09-02T08:18:13.438Z,7.13
2018-09-02T08:19:13.451Z,7.32
2018-09-02T08:20:13.464Z,7.24
2018-09-02T08:21:13.484Z,7.25
2018-09-02T08:22:13.490Z,7.35
2018-09-02T08:23:13.502Z,7.43
2018-09-02T08:24:13.518Z,7.40
2018-09-02T08:25:13.528Z,7.24
2018-09-02T08:26:13.540Z,7.34
2018-09-02T08:27:13.555Z,7.43
2018-09-02T08:28:13.567Z,7.52
2018-09-02T08:29:13.578Z,7.42
2018-09-02T08:30:13.592Z,7.32
2018-09-02T08:31:13.605Z,7.46
2018-09-02T08:32:13.616Z,7.50
2018-09-02T08:33:13.631Z,7.61
2018-09-02T08:34:13.643Z,7.58
2018-09-02T08:35:13.659Z,7.63
2018-09-02T08:36:13.668Z,7.75
2018-09-02T08:37:13.681Z,7.77
2018-09-02T08:38:13.692Z,7.82
2018-09-02T08:39:13.769Z,7.83
2018-09-02T08:40:13.719Z,7.86
2018-09-02T08:41:13.730Z,7.79
2018-09-02T08:42:13.744Z,7.80
2018-09-02T08:43:13.761Z,7.74
2018-09-02T08:44:13.845Z,7.80
2018-09-02T08:45:13.788Z,7.80
2018-09-02T08:46:13.797Z,7.89
2018-09-02T08:47:13.808Z,8.00
2018-09-02T08:48:13.833Z,8.11
2018-09-02T08:49:13.839Z,8.11
2018-09-02T08:50:13.851Z,8.07
2018-09-02T08:51:13.862Z,7.97
2018-09-02T08:52:13.876Z,8.07
2018-09-02T08:53:13.886Z,8.12
2018-09-02T08:54:13.901Z,8.15
2018-09-02T08:55:13.913Z,8.18
2018-09-02T08:56:13.927Z,7.97
2018-09-02T08:57:13.941Z,8.00
2018-09-02T08:58:13.952Z,8.18
2018-09-02T08:59:14.015Z,8.19
2018-09-02T09:00:13.979Z,8.20
2018-09-02T09:01:13.990Z,8.18
2018-09-02T09:02:14.005Z,8.18
2018-09-02T09:03:14.017Z,8.26
2018-09-02T09:04:14.031Z,8.37
2018-09-02T09:05:14.042Z,8.18
2018-09-02T09:06:14.056Z,8.15
2018-09-02T09:07:14.069Z,8.18
2018-09-02T09:08:14.445Z,8.26
2018-09-02T09:09:14.253Z,8.28
2018-09-02T09:10:14.110Z,8.19
2018-09-02T09:11:14.120Z,8.34
2018-09-02T09:12:14.135Z,8.58
2018-09-02T09:13:14.146Z,8.83
2018-09-02T09:14:14.204Z,8.83
2018-09-02T09:15:14.175Z,8.96
2018-09-02T09:16:14.191Z,8.80
2018-09-02T09:17:14.265Z,9.05
2018-09-02T09:18:14.213Z,9.15
2018-09-02T09:19:14.230Z,9.26
2018-09-02T09:20:14.241Z,9.24
2018-09-02T09:21:14.254Z,9.11
2018-09-02T09:22:14.265Z,9.20
2018-09-02T09:23:14.284Z,9.14
2018-09-02T09:24:14.295Z,9.13
2018-09-02T09:25:14.436Z,9.40
2018-09-02T09:26:14.317Z,9.21
2018-09-02T09:27:14.335Z,9.29
2018-09-02T09:28:14.347Z,9.57
2018-09-02T09:29:14.361Z,9.60
2018-09-02T09:30:14.373Z,9.64
2018-09-02T09:31:14.389Z,9.56
2018-09-02T09:32:14.427Z,9.57
2018-09-02T09:33:14.411Z,9.69
2018-09-02T09:34:14.427Z,10.17
2018-09-02T09:35:14.441Z,10.47
2018-09-02T09:36:14.455Z,10.18
2018-09-02T09:37:14.468Z,9.71
2018-09-02T09:38:14.482Z,9.36
2018-09-02T09:39:14.496Z,9.53
2018-09-02T09:40:14.510Z,9.65
2018-09-02T09:41:14.524Z,9.46
2018-09-02T09:42:14.535Z,9.66
2018-09-02T09:43:14.551Z,9.50
2018-09-02T09:44:14.563Z,9.14
2018-09-02T09:45:14.576Z,8.99
2018-09-02T09:46:14.593Z,8.83
2018-09-02T09:47:14.605Z,9.08
2018-09-02T09:48:14.619Z,9.17
2018-09-02T09:49:14.631Z,9.14
2018-09-02T09:50:14.646Z,9.35
2018-09-02T09:51:14.662Z,9.31
2018-09-02T09:52:14.674Z,8.86
2018-09-02T09:53:14.686Z,9.05
2018-09-02T09:54:14.700Z,9.13
2018-09-02T09:55:14.715Z,9.31
2018-09-02T09:56:14.727Z,9.40
2018-09-02T09:57:14.741Z,9.64
2018-09-02T09:58:14.756Z,9.74
2018-09-02T09:59:14.818Z,9.53
2018-09-02T10:00:14.786Z,9.89
2018-09-02T10:01:14.794Z,10.07
2018-09-02T10:02:14.813Z,10.01
2018-09-02T10:03:14.825Z,10.01
2018-09-02T10:04:14.838Z,10.05
2018-09-02T10:05:14.851Z,10.38
2018-09-02T10:06:14.862Z,10.32
2018-09-02T10:07:14.877Z,10.14
2018-09-02T10:08:14.891Z,10.20
2018-09-02T10:09:14.902Z,9.68
2018-09-02T10:10:14.925Z,10.12
2018-09-02T10:11:14.932Z,10.20
2018-09-02T10:12:14.948Z,10.27
2018-09-02T10:13:14.959Z,10.59
2018-09-02T10:14:14.971Z,10.41
2018-09-02T10:15:14.997Z,10.56
2018-09-02T10:16:15.003Z,10.96
2018-09-02T10:17:15.041Z,10.82
2018-09-02T10:18:15.133Z,11.15
2018-09-02T10:19:15.043Z,10.84
2018-09-02T10:20:15.058Z,11.07
2018-09-02T10:21:15.071Z,11.07
2018-09-02T10:22:15.085Z,11.42
2018-09-02T10:23:15.102Z,11.98
2018-09-02T10:24:15.114Z,12.05
2018-09-02T10:25:15.129Z,12.45
2018-09-02T10:26:15.145Z,12.49
2018-09-02T10:27:15.185Z,12.78
2018-09-02T10:28:15.171Z,12.92
2018-09-02T10:29:15.185Z,12.78
2018-09-02T10:30:15.203Z,12.78
2018-09-02T10:31:15.218Z,12.78
2018-09-02T10:32:15.232Z,12.53
2018-09-02T10:33:15.289Z,12.19
2018-09-02T10:34:15.261Z,12.02
2018-09-02T10:35:15.277Z,12.19
2018-09-02T10:36:15.290Z,12.65
2018-09-02T10:37:15.304Z,12.60
2018-09-02T10:38:15.321Z,12.90
2018-09-02T10:39:15.336Z,13.01
2018-09-02T10:40:15.353Z,13.19
2018-09-02T10:41:15.566Z,13.59
2018-09-02T10:42:15.385Z,12.74
2018-09-02T10:43:15.399Z,12.62
2018-09-02T10:44:15.420Z,12.45
2018-09-02T10:45:15.430Z,12.79
2018-09-02T10:46:15.444Z,13.10
2018-09-02T10:47:15.464Z,13.69
2018-09-02T10:48:15.478Z,12.78
2018-09-02T10:49:15.494Z,12.86
2018-09-02T10:50:15.612Z,13.03
2018-09-02T10:51:15.525Z,13.30
2018-09-02T10:52:15.544Z,13.26
2018-09-02T10:53:15.556Z,13.39
2018-09-02T10:54:15.573Z,13.11
2018-09-02T10:55:15.587Z,12.53
2018-09-02T10:56:15.649Z,12.37
2018-09-02T10:57:15.624Z,12.56
2018-09-02T10:58:15.638Z,12.64
2018-09-02T10:59:15.653Z,12.53
2018-09-02T11:00:15.675Z,12.77
2018-09-02T11:01:15.685Z,12.78
2018-09-02T11:02:15.702Z,13.71
2018-09-02T11:03:15.719Z,14.45
2018-09-02T11:04:15.734Z,14.12
2018-09-02T11:05:15.748Z,14.04
2018-09-02T11:06:15.766Z,14.36
2018-09-02T11:07:15.784Z,14.62
2018-09-02T11:08:15.801Z,14.54
2018-09-02T11:09:15.817Z,14.28
2018-09-02T11:10:15.833Z,13.84
2018-09-02T11:11:15.851Z,14.27
2018-09-02T11:12:15.866Z,14.18
2018-09-02T11:13:16.007Z,14.28
2018-09-02T11:14:15.916Z,14.09
2018-09-02T11:15:15.919Z,14.27
2018-09-02T11:16:15.946Z,13.79
2018-09-02T11:17:15.950Z,13.70
2018-09-02T11:18:15.975Z,13.82
2018-09-02T11:19:15.986Z,13.36
2018-09-02T11:20:16.021Z,14.20
2018-09-02T11:21:16.020Z,14.42
2018-09-02T11:22:16.059Z,14.80
2018-09-02T11:23:16.054Z,14.60
2018-09-02T11:24:16.090Z,14.29
2018-09-02T11:25:16.087Z,13.70
2018-09-02T11:26:16.107Z,13.49
2018-09-02T11:27:16.122Z,13.38
2018-09-02T11:28:16.138Z,12.86
2018-09-02T11:29:16.156Z,12.72
2018-09-02T11:30:16.175Z,12.47
2018-09-02T11:31:16.195Z,12.56
2018-09-02T11:32:16.208Z,13.08
2018-09-02T11:33:16.227Z,12.89
2018-09-02T11:34:16.246Z,13.23
2018-09-02T11:35:16.259Z,13.32
2018-09-02T11:36:16.280Z,13.70
2018-09-02T11:37:16.293Z,14.07
2018-09-02T11:38:16.310Z,14.27
2018-09-02T11:39:16.427Z,15.01
2018-09-02T11:40:16.417Z,15.60
2018-09-02T11:41:16.365Z,15.86
2018-09-02T11:42:16.379Z,15.62
2018-09-02T11:43:16.412Z,14.69
2018-09-02T11:44:16.414Z,13.87
2018-09-02T11:45:16.435Z,13.60
2018-09-02T11:46:16.455Z,14.09
2018-09-02T11:47:16.468Z,14.03
2018-09-02T11:48:16.489Z,14.18
2018-09-02T11:49:16.501Z,13.89
2018-09-02T11:50:16.519Z,14.03
2018-09-02T11:51:16.537Z,14.03
2018-09-02T11:52:16.562Z,13.62
2018-09-02T11:53:16.570Z,14.02
2018-09-02T11:54:16.588Z,14.43
2018-09-02T11:55:16.606Z,14.68
2018-09-02T11:56:16.627Z,15.29
2018-09-02T11:57:16.644Z,15.69
2018-09-02T11:58:16.659Z,15.93
2018-09-02T11:59:16.679Z,15.27
2018-09-02T12:00:16.698Z,14.95
2018-09-02T12:01:16.711Z,14.94
2018-09-02T12:02:16.730Z,15.03
2018-09-02T12:03:16.749Z,15.29
2018-09-02T12:04:16.769Z,14.69
2018-09-02T12:05:16.783Z,14.39
2018-09-02T12:06:16.804Z,14.65
2018-09-02T12:07:16.819Z,14.21
2018-09-02T12:08:16.842Z,14.03
2018-09-02T12:09:16.857Z,14.22
2018-09-02T12:10:16.881Z,14.68
2018-09-02T12:11:16.893Z,15.23
2018-09-02T12:12:16.914Z,15.43
2018-09-02T12:13:16.928Z,15.39
2018-09-02T12:14:16.951Z,15.80
2018-09-02T12:15:16.965Z,16.41
2018-09-02T12:16:16.984Z,16.76
2018-09-02T12:17:17.000Z,16.94
2018-09-02T12:18:17.019Z,17.15
2018-09-02T12:19:17.038Z,16.15
2018-09-02T12:20:17.060Z,16.05
2018-09-02T12:21:17.076Z,15.21
2018-09-02T12:22:17.092Z,15.10
2018-09-02T12:23:17.115Z,15.17
2018-09-02T12:24:17.132Z,14.96
2018-09-02T12:25:17.152Z,15.14
2018-09-02T12:26:17.167Z,14.91
2018-09-02T12:27:17.188Z,14.57
2018-09-02T12:28:17.208Z,14.70
2018-09-02T12:29:17.225Z,14.84
2018-09-02T12:30:17.243Z,15.38
2018-09-02T12:31:17.261Z,15.23
2018-09-02T12:32:17.281Z,15.65
2018-09-02T12:33:17.298Z,15.43
2018-09-02T12:34:17.320Z,15.94
2018-09-02T12:35:17.339Z,16.35
2018-09-02T12:36:17.356Z,16.57
2018-09-02T12:37:17.373Z,15.59
2018-09-02T12:38:17.392Z,15.39
2018-09-02T12:39:17.410Z,15.54
2018-09-02T12:40:17.429Z,15.96
2018-09-02T12:41:17.446Z,16.31
2018-09-02T12:42:17.521Z,15.84
2018-09-02T12:43:17.484Z,16.39
2018-09-02T12:44:17.506Z,16.49
2018-09-02T12:45:17.520Z,16.52
2018-09-02T12:46:17.545Z,16.63
2018-09-02T12:47:17.562Z,16.82
2018-09-02T12:48:17.712Z,16.70
2018-09-02T12:49:17.601Z,16.89
2018-09-02T12:50:17.617Z,17.31
2018-09-02T12:51:17.641Z,17.55
2018-09-02T12:52:17.658Z,15.96
2018-09-02T12:53:17.676Z,15.59
2018-09-02T12:54:17.695Z,15.51
2018-09-02T12:55:18.145Z,16.01
2018-09-02T12:56:17.735Z,16.09
2018-09-02T12:57:17.755Z,15.56
2018-09-02T12:58:17.777Z,15.82
2018-09-02T12:59:17.794Z,15.75
2018-09-02T13:00:17.811Z,15.87
2018-09-02T13:01:17.897Z,15.71
2018-09-02T13:02:17.849Z,15.35
2018-09-02T13:03:17.875Z,15.74
2018-09-02T13:04:17.890Z,15.53
2018-09-02T13:05:17.908Z,15.60
2018-09-02T13:06:18.012Z,16.20
2018-09-02T13:07:17.946Z,16.58
2018-09-02T13:08:17.970Z,16.70
2018-09-02T13:09:18.002Z,15.96
2018-09-02T13:10:18.005Z,16.14
2018-09-02T13:11:18.026Z,16.39
2018-09-02T13:12:18.049Z,15.90